createdAt,value
2023-04-05T00:00:54.110Z,99772.72
2023-04-05T00:03:24.336Z,99767.50
2023-04-05T00:05:54.759Z,99767.50
2023-04-05T00:08:26.965Z,99766.66
2023-04-05T00:10:54.898Z,99766.66
2023-04-05T00:13:22.882Z,99767.50
2023-04-05T00:15:50.928Z,99761.44
2023-04-05T00:18:23.829Z,99760.56
2023-04-05T00:20:53.300Z,99744.97
2023-04-05T00:23:22.817Z,99764.91
2023-04-05T00:25:50.388Z,99756.25
2023-04-05T00:28:17.954Z,99752.78
2023-04-05T00:30:45.589Z,99755.38
2023-04-05T00:33:13.664Z,99761.44
2023-04-05T00:35:41.296Z,99749.31
2023-04-05T00:38:10.337Z,99750.19
2023-04-05T00:40:38.017Z,99755.38
2023-04-05T00:43:05.611Z,99755.38
2023-04-05T00:45:33.758Z,99755.38
2023-04-05T00:48:01.621Z,99761.44
2023-04-05T00:50:30.864Z,99750.16
2023-04-05T00:52:58.640Z,99750.19
2023-04-05T00:55:27.826Z,99749.31
2023-04-05T00:57:56.252Z,99750.19
2023-04-05T01:00:24.515Z,99747.56
2023-04-05T01:02:53.884Z,99737.19
2023-04-05T01:05:30.158Z,99744.97
2023-04-05T01:08:01.207Z,99745.84
2023-04-05T01:10:36.999Z,99743.25
2023-04-05T01:13:04.949Z,99737.19
2023-04-05T01:15:32.826Z,99736.31
2023-04-05T01:18:02.083Z,99731.97
2023-04-05T01:20:35.002Z,99726.78
2023-04-05T01:23:27.668Z,99730.25
2023-04-05T01:26:39.955Z,99729.38
2023-04-05T01:29:37.966Z,99725.03
2023-04-05T01:32:11.663Z,99722.44
2023-04-05T01:34:47.131Z,99715.50
2023-04-05T01:37:17.233Z,99716.38
2023-04-05T01:39:47.385Z,99713.75
2023-04-05T01:42:15.033Z,99714.63
2023-04-05T01:44:44.193Z,99708.56
2023-04-05T01:47:11.754Z,99699.91
2023-04-05T01:49:39.358Z,99708.53
2023-04-05T01:52:06.934Z,99707.69
2023-04-05T01:54:34.488Z,99713.72
2023-04-05T01:57:02.128Z,99711.16
2023-04-05T01:59:29.766Z,99706.81
2023-04-05T02:01:59.003Z,99705.09
2023-04-05T02:04:26.745Z,99703.38
2023-04-05T02:06:54.366Z,99708.53
2023-04-05T02:09:21.937Z,99705.06
2023-04-05T02:11:49.549Z,99701.59
2023-04-05T02:14:17.100Z,99710.22
2023-04-05T02:16:44.761Z,99701.56
2023-04-05T02:19:15.865Z,99706.78
2023-04-05T02:21:43.572Z,99702.44
2023-04-05T02:24:11.140Z,99700.75
2023-04-05T02:26:38.736Z,99692.91
2023-04-05T02:29:06.382Z,99692.91
2023-04-05T02:31:34.149Z,99689.44
2023-04-05T02:34:01.872Z,99689.44
2023-04-05T02:36:30.824Z,99692.91
2023-04-05T02:38:58.424Z,99692.03
2023-04-05T02:41:26.015Z,99686.00
2023-04-05T02:43:53.565Z,99683.38
2023-04-05T02:46:21.276Z,99683.31
2023-04-05T02:48:48.887Z,99697.16
2023-04-05T02:51:16.473Z,99685.09
2023-04-05T02:53:45.537Z,99679.88
2023-04-05T02:56:14.244Z,99687.63
2023-04-05T02:58:42.395Z,99681.56
2023-04-05T03:01:10.132Z,99676.38
2023-04-05T03:03:40.207Z,99678.94
2023-04-05T03:06:10.213Z,99676.31
2023-04-05T03:08:38.805Z,99681.44
2023-04-05T03:11:07.880Z,99679.75
2023-04-05T03:13:35.974Z,99684.94
2023-04-05T03:16:03.570Z,99682.38
2023-04-05T03:18:31.177Z,99689.25
2023-04-05T03:20:59.183Z,99682.34
2023-04-05T03:23:29.686Z,99681.50
2023-04-05T03:26:00.485Z,99676.31
2023-04-05T03:28:32.177Z,99664.19
2023-04-05T03:31:00.209Z,99674.59
2023-04-05T03:33:27.871Z,99678.03
2023-04-05T03:35:55.514Z,99672.91
2023-04-05T03:38:23.162Z,99671.19
2023-04-05T03:40:50.797Z,99681.56
2023-04-05T03:43:18.312Z,99671.09
2023-04-05T03:45:47.277Z,99670.19
2023-04-05T03:48:19.909Z,99670.16
2023-04-05T03:50:47.533Z,99678.81
2023-04-05T03:53:19.030Z,99671.03
2023-04-05T03:55:50.362Z,99671.06
2023-04-05T03:58:18.145Z,99673.66
2023-04-05T04:00:47.224Z,99669.31
2023-04-05T04:03:15.112Z,99664.94
2023-04-05T04:05:43.087Z,99664.00
2023-04-05T04:08:11.355Z,99668.38
2023-04-05T04:10:38.934Z,99664.06
2023-04-05T04:15:34.090Z,99675.38
2023-04-05T04:18:03.027Z,99674.56
2023-04-05T04:20:30.861Z,99669.22
2023-04-05T04:22:58.903Z,99677.00
2023-04-05T04:25:30.743Z,99670.09
2023-04-05T04:27:59.047Z,99670.94
2023-04-05T04:30:26.945Z,99676.97
2023-04-05T04:32:55.227Z,99675.25
2023-04-05T04:35:25.849Z,99673.50
2023-04-05T04:37:57.873Z,99674.41
2023-04-05T04:40:26.716Z,99673.47
2023-04-05T04:42:54.647Z,99678.59
2023-04-05T04:45:22.300Z,99669.13
2023-04-05T04:47:52.714Z,99676.91
2023-04-05T04:50:22.073Z,99670.94
2023-04-05T04:52:51.046Z,99674.31
2023-04-05T04:55:18.608Z,99676.94
2023-04-05T04:57:46.131Z,99676.13
2023-04-05T05:00:15.719Z,99670.88
2023-04-05T05:02:44.255Z,99680.38
2023-04-05T05:05:12.513Z,99680.44
2023-04-05T05:07:41.818Z,99682.13
2023-04-05T05:10:12.419Z,99678.66
2023-04-05T05:15:09.146Z,99683.91
2023-04-05T05:17:37.473Z,99682.22
2023-04-05T05:20:11.041Z,99684.81
2023-04-05T05:22:39.429Z,99678.69
2023-04-05T05:25:08.658Z,99677.03
2023-04-05T05:27:37.573Z,99684.75
2023-04-05T05:30:05.841Z,99683.94
2023-04-05T05:32:33.485Z,99673.59
2023-04-05T05:35:01.114Z,99684.03
2023-04-05T05:37:31.211Z,99677.09
2023-04-05T05:39:58.923Z,99678.81
2023-04-05T05:42:27.093Z,99670.22
2023-04-05T05:44:55.982Z,99681.47
2023-04-05T05:47:23.661Z,99684.06
2023-04-05T05:49:51.216Z,99678.06
2023-04-05T05:52:18.870Z,99670.34
2023-04-05T05:54:47.131Z,99682.47
2023-04-05T05:57:14.740Z,99670.34
2023-04-05T05:59:42.298Z,99685.06
2023-04-05T06:02:11.974Z,99684.25
2023-04-05T06:04:39.717Z,99687.69
2023-04-05T06:07:07.373Z,99687.66
2023-04-05T06:09:35.248Z,99684.25
2023-04-05T06:12:02.914Z,99685.94
2023-04-05T06:14:31.140Z,99690.28
2023-04-05T06:16:58.729Z,99692.91
2023-04-05T06:19:27.800Z,99690.34
2023-04-05T06:21:56.016Z,99688.59
2023-04-05T06:24:23.582Z,99696.38
2023-04-05T06:26:51.956Z,99686.88
2023-04-05T06:29:19.557Z,99687.75
2023-04-05T06:31:48.356Z,99690.34
2023-04-05T06:34:16.047Z,99697.28
2023-04-05T06:36:45.043Z,99693.84
2023-04-05T06:39:12.600Z,99695.56
2023-04-05T06:41:40.227Z,99699.06
2023-04-05T06:44:07.827Z,99693.00
2023-04-05T06:46:35.376Z,99686.06
2023-04-05T06:49:04.125Z,99688.66
2023-04-05T06:51:31.999Z,99688.66
2023-04-05T06:54:00.886Z,99693.84
2023-04-05T06:56:28.574Z,99693.00
2023-04-05T06:58:58.054Z,99696.47
2023-04-05T07:01:26.306Z,99694.72
2023-04-05T07:03:54.281Z,99689.50
2023-04-05T07:06:23.838Z,99690.38
2023-04-05T07:08:52.536Z,99692.09
2023-04-05T07:11:21.958Z,99689.50
2023-04-05T07:13:49.616Z,99686.88
2023-04-05T07:16:19.200Z,99690.28
2023-04-05T07:18:46.841Z,99689.41
2023-04-05T07:21:14.558Z,99684.22
2023-04-05T07:23:42.127Z,99684.97
2023-04-05T07:26:09.751Z,99687.63
2023-04-05T07:28:38.751Z,99680.66
2023-04-05T07:31:07.573Z,99684.09
2023-04-05T07:33:35.293Z,99680.69
2023-04-05T07:36:03.460Z,99673.56
2023-04-05T07:38:31.096Z,99677.97
2023-04-05T07:40:58.705Z,99679.59
2023-04-05T07:43:26.805Z,99678.66
2023-04-05T07:46:02.313Z,99672.56
2023-04-05T07:48:30.234Z,99673.34
2023-04-05T07:50:58.399Z,99682.84
2023-04-05T07:53:26.156Z,99684.44
2023-04-05T07:55:53.956Z,99688.75
2023-04-05T07:58:22.567Z,99691.47
2023-04-05T08:00:50.449Z,99686.97
2023-04-05T08:03:19.440Z,99689.41
2023-04-05T08:05:47.082Z,99684.91
2023-04-05T08:08:14.687Z,99681.41
2023-04-05T08:10:42.581Z,99686.31
2023-04-05T08:13:10.422Z,99680.47
2023-04-05T08:15:38.055Z,99672.19
2023-04-05T08:18:05.632Z,99673.84
2023-04-05T08:20:39.262Z,99668.41
2023-04-05T08:23:07.808Z,99668.47
2023-04-05T08:25:35.426Z,99671.09
2023-04-05T08:28:02.953Z,99668.38
2023-04-05T08:30:30.662Z,99666.63
2023-04-05T08:32:58.235Z,99658.47
2023-04-05T08:35:25.969Z,99659.25
2023-04-05T08:37:54.928Z,99657.34
2023-04-05T08:40:22.521Z,99664.38
2023-04-05T08:42:54.305Z,99660.88
2023-04-05T08:45:21.904Z,99668.22
2023-04-05T08:47:50.613Z,99671.75
2023-04-05T08:50:18.202Z,99669.88
2023-04-05T08:52:49.777Z,99663.53
2023-04-05T08:55:18.819Z,99664.72
2023-04-05T08:57:55.222Z,99654.16
2023-04-05T09:00:23.074Z,99663.53
2023-04-05T09:02:52.325Z,99647.78
2023-04-05T09:05:21.065Z,99665.97
2023-04-05T09:07:48.930Z,99660.38
2023-04-05T09:10:20.444Z,99648.19
2023-04-05T09:12:48.632Z,99654.75
2023-04-05T09:15:17.714Z,99665.03
2023-04-05T09:17:45.581Z,99656.41
2023-04-05T09:20:13.291Z,99654.94
2023-04-05T09:22:45.313Z,99647.81
2023-04-05T09:25:13.027Z,99643.88
2023-04-05T09:27:57.340Z,99646.81
2023-04-05T09:30:25.884Z,99648.00
2023-04-05T09:32:54.939Z,99634.72
2023-04-05T09:35:24.083Z,99652.94
2023-04-05T09:37:54.253Z,99640.13
2023-04-05T09:40:22.409Z,99655.41
2023-04-05T09:42:50.795Z,99650.50
2023-04-05T09:45:19.919Z,99643.03
2023-04-05T09:47:56.068Z,99651.22
2023-04-05T09:50:23.799Z,99646.34
2023-04-05T09:52:52.441Z,99639.66
2023-04-05T09:55:29.783Z,99634.34
2023-04-05T09:57:57.441Z,99640.41
2023-04-05T10:00:26.413Z,99641.06
2023-04-05T10:02:55.184Z,99638.09
2023-04-05T10:05:25.492Z,99632.53
2023-04-05T10:07:53.345Z,99639.34
2023-04-05T10:10:23.180Z,99642.56
2023-04-05T10:12:51.390Z,99637.41
2023-04-05T10:15:19.385Z,99631.22
2023-04-05T10:17:51.515Z,99623.88
2023-04-05T10:20:19.947Z,99635.84
2023-04-05T10:23:01.935Z,99633.00
2023-04-05T10:25:38.270Z,99618.81
2023-04-05T10:28:06.932Z,99622.88
2023-04-05T10:30:37.695Z,99628.09
2023-04-05T10:33:15.603Z,99619.59
2023-04-05T10:35:51.583Z,99615.13
2023-04-05T10:38:24.213Z,99626.38
2023-04-05T10:40:55.487Z,99620.28
2023-04-05T10:43:26.169Z,99616.34
2023-04-05T10:45:55.646Z,99610.94
2023-04-05T10:48:38.168Z,99607.94
2023-04-05T10:51:06.196Z,99616.66
2023-04-05T10:53:35.241Z,99612.38
2023-04-05T10:56:02.899Z,99612.53
2023-04-05T10:58:31.271Z,99610.09
2023-04-05T11:00:59.316Z,99611.72
2023-04-05T11:03:47.394Z,99615.59
2023-04-05T11:06:23.779Z,99601.91
2023-04-05T11:08:55.280Z,99588.22
2023-04-05T11:11:24.223Z,99587.66
2023-04-05T11:13:53.863Z,99590.22
2023-04-05T11:16:22.218Z,99589.00
2023-04-05T11:18:53.430Z,99596.13
2023-04-05T11:21:22.908Z,99590.03
2023-04-05T11:24:07.014Z,99594.38
2023-04-05T11:26:54.281Z,99587.25
2023-04-05T11:29:50.642Z,99588.41
2023-04-05T11:32:18.544Z,99583.13
2023-04-05T11:34:59.803Z,99575.94
2023-04-05T11:37:55.365Z,99576.53
2023-04-05T11:40:28.314Z,99576.91
2023-04-05T11:43:13.704Z,99574.22
2023-04-05T11:45:43.379Z,99557.94
2023-04-05T11:48:13.143Z,99554.66
2023-04-05T11:50:43.110Z,99560.44
2023-04-05T11:53:14.809Z,99555.75
2023-04-05T11:55:43.797Z,99556.06
2023-04-05T11:58:15.999Z,99552.31
2023-04-05T12:00:44.342Z,99559.84
2023-04-05T12:03:13.217Z,99558.41
2023-04-05T12:05:50.700Z,99551.09
2023-04-05T12:08:18.742Z,99543.75
2023-04-05T12:10:46.779Z,99538.47
2023-04-05T12:13:14.533Z,99538.91
2023-04-05T12:15:42.437Z,99542.22
2023-04-05T12:18:19.135Z,99522.34
2023-04-05T12:20:47.108Z,99536.72
2023-04-05T12:23:17.492Z,99546.03
2023-04-05T12:25:47.653Z,99539.97
2023-04-05T12:28:15.365Z,99537.53
2023-04-05T12:30:52.960Z,99531.00
2023-04-05T12:33:30.391Z,99527.81
2023-04-05T12:35:58.374Z,99525.59
2023-04-05T12:38:30.880Z,99521.16
2023-04-05T12:41:00.978Z,99502.19
2023-04-05T12:43:39.375Z,99518.88
2023-04-05T12:46:10.334Z,99522.31
2023-04-05T12:48:38.547Z,99516.84
2023-04-05T12:51:15.510Z,99518.66
2023-04-05T12:53:48.131Z,99507.09
2023-04-05T12:56:16.681Z,99504.47
2023-04-05T12:58:44.337Z,99505.88
2023-04-05T13:01:12.791Z,99504.63
2023-04-05T13:03:40.577Z,99497.91
2023-04-05T13:06:10.172Z,99494.94
2023-04-05T13:08:37.987Z,99483.22
2023-04-05T13:11:07.159Z,99482.66
2023-04-05T13:13:35.223Z,99487.81
2023-04-05T13:16:03.008Z,99482.72
2023-04-05T13:18:30.746Z,99478.13
2023-04-05T13:20:58.372Z,99480.66
2023-04-05T13:23:25.924Z,99481.81
2023-04-05T13:25:53.595Z,99458.84
2023-04-05T13:28:22.524Z,99475.16
2023-04-05T13:30:51.262Z,99468.34
2023-04-05T13:33:20.241Z,99461.84
2023-04-05T13:35:48.147Z,99459.22
2023-04-05T13:38:15.971Z,99464.00
2023-04-05T13:40:43.562Z,99468.53
2023-04-05T13:43:11.151Z,99461.38
2023-04-05T13:45:40.589Z,99455.56
2023-04-05T13:48:08.485Z,99456.81
2023-04-05T13:50:36.306Z,99451.31
2023-04-05T13:53:03.830Z,99452.72
2023-04-05T13:55:31.587Z,99435.91
2023-04-05T13:57:59.170Z,99445.06
2023-04-05T14:00:26.807Z,99448.13
2023-04-05T14:02:56.046Z,99439.00
2023-04-05T14:05:23.803Z,99443.22
2023-04-05T14:07:51.643Z,99427.31
2023-04-05T14:10:21.506Z,99431.88
2023-04-05T14:12:49.316Z,99422.25
2023-04-05T14:15:17.132Z,99427.63
2023-04-05T14:17:45.200Z,99424.19
2023-04-05T14:20:14.555Z,99417.03
2023-04-05T14:22:42.342Z,99417.13
2023-04-05T14:25:10.744Z,99421.94
2023-04-05T14:27:42.206Z,99421.78
2023-04-05T14:30:11.129Z,99412.38
2023-04-05T14:32:39.078Z,99420.13
2023-04-05T14:35:07.616Z,99415.13
2023-04-05T14:37:36.636Z,99414.91
2023-04-05T14:40:04.793Z,99418.88
2023-04-05T14:42:47.842Z,99407.91
2023-04-05T14:45:16.700Z,99407.97
2023-04-05T14:47:44.478Z,99401.78
2023-04-05T14:50:12.452Z,99400.47
2023-04-05T14:52:41.605Z,99396.75
2023-04-05T14:55:12.378Z,99396.09
2023-04-05T14:57:40.225Z,99393.75
2023-04-05T15:00:09.489Z,99387.09
2023-04-05T15:02:38.162Z,99384.06
2023-04-05T15:05:06.830Z,99391.38
2023-04-05T15:07:34.770Z,99382.94
2023-04-05T15:10:04.375Z,99389.19
2023-04-05T15:12:33.025Z,99376.44
2023-04-05T15:15:02.115Z,99375.53
2023-04-05T15:17:29.971Z,99374.38
2023-04-05T15:19:57.680Z,99368.81
2023-04-05T15:22:25.419Z,99375.13
2023-04-05T15:24:53.137Z,99372.66
2023-04-05T15:27:22.403Z,99373.47
2023-04-05T15:29:50.464Z,99368.41
2023-04-05T15:32:18.313Z,99373.25
2023-04-05T15:34:46.117Z,99363.50
2023-04-05T15:37:13.987Z,99367.75
2023-04-05T15:39:41.752Z,99367.59
2023-04-05T15:42:09.497Z,99365.25
2023-04-05T15:44:38.928Z,99366.16
2023-04-05T15:47:06.664Z,99367.69
2023-04-05T15:49:34.393Z,99366.25
2023-04-05T15:52:02.076Z,99369.09
2023-04-05T15:54:29.806Z,99364.28
2023-04-05T15:56:58.318Z,99359.56
2023-04-05T15:59:26.144Z,99356.78
2023-04-05T16:01:55.389Z,99359.97
2023-04-05T16:04:23.264Z,99359.66
2023-04-05T16:06:51.073Z,99354.94
2023-04-05T16:09:18.784Z,99351.19
2023-04-05T16:11:46.604Z,99353.22
2023-04-05T16:14:14.451Z,99353.34
2023-04-05T16:16:52.879Z,99351.22
2023-04-05T16:19:26.228Z,99343.00
2023-04-05T16:21:53.987Z,99348.56
2023-04-05T16:24:21.698Z,99349.34
2023-04-05T16:26:49.481Z,99346.50
2023-04-05T16:29:17.206Z,99342.59
2023-04-05T16:31:47.281Z,99346.09
2023-04-05T16:34:15.531Z,99343.44
2023-04-05T16:36:44.649Z,99334.69
2023-04-05T16:39:12.638Z,99338.72
2023-04-05T16:41:40.516Z,99341.84
2023-04-05T16:44:08.627Z,99335.16
2023-04-05T16:46:36.427Z,99337.09
2023-04-05T16:49:04.381Z,99334.78
2023-04-05T16:51:32.491Z,99334.53
2023-04-05T16:54:01.674Z,99334.03
2023-04-05T16:56:29.489Z,99336.66
2023-04-05T16:58:57.457Z,99339.75
2023-04-05T17:01:26.507Z,99314.97
2023-04-05T17:03:54.274Z,99337.00
2023-04-05T17:06:22.204Z,99337.97
2023-04-05T17:08:49.917Z,99335.59
2023-04-05T17:11:18.964Z,99341.19
2023-04-05T17:13:47.303Z,99340.78
2023-04-05T17:16:16.089Z,99336.09
2023-04-05T17:18:43.859Z,99337.06
2023-04-05T17:21:12.436Z,99331.38
2023-04-05T17:23:40.684Z,99333.63
2023-04-05T17:26:08.392Z,99332.69
2023-04-05T17:28:37.918Z,99334.34
2023-04-05T17:31:06.783Z,99336.28
2023-04-05T17:33:35.011Z,99337.13
2023-04-05T17:36:04.144Z,99335.16
2023-04-05T17:38:31.916Z,99332.28
2023-04-05T17:40:59.549Z,99338.00
2023-04-05T17:43:27.434Z,99344.31
2023-04-05T17:45:57.073Z,99347.47
2023-04-05T17:48:27.272Z,99345.38
2023-04-05T17:50:55.116Z,99349.31
2023-04-05T17:53:22.878Z,99336.03
2023-04-05T17:55:50.759Z,99345.91
2023-04-05T17:58:19.202Z,99345.00
2023-04-05T18:00:46.854Z,99349.00
2023-04-05T18:03:17.901Z,99348.84
2023-04-05T18:05:51.239Z,99343.66
2023-04-05T18:08:19.113Z,99346.84
2023-04-05T18:10:46.797Z,99340.66
2023-04-05T18:13:15.720Z,99347.78
2023-04-05T18:15:43.416Z,99349.25
2023-04-05T18:18:11.863Z,99346.16
2023-04-05T18:20:41.427Z,99353.22
2023-04-05T18:23:09.252Z,99356.00
2023-04-05T18:25:36.977Z,99361.41
2023-04-05T18:28:15.515Z,99362.63
2023-04-05T18:30:50.581Z,99364.47
2023-04-05T18:33:18.623Z,99368.16
2023-04-05T18:35:51.531Z,99368.25
2023-04-05T18:38:19.349Z,99376.19
2023-04-05T18:40:47.083Z,99374.47
2023-04-05T18:43:15.127Z,99376.63
2023-04-05T18:45:42.872Z,99377.63
2023-04-05T18:48:12.000Z,99376.94
2023-04-05T18:50:40.118Z,99370.91
2023-04-05T18:53:09.553Z,99376.06
2023-04-05T18:55:37.918Z,99369.91
2023-04-05T18:58:05.984Z,99375.34
2023-04-05T19:00:34.897Z,99382.47
2023-04-05T19:03:02.820Z,99377.41
2023-04-05T19:05:30.572Z,99381.78
2023-04-05T19:07:58.396Z,99385.25
2023-04-05T19:10:27.553Z,99383.75
2023-04-05T19:12:55.534Z,99389.84
2023-04-05T19:15:23.179Z,99388.28
2023-04-05T19:17:51.157Z,99384.06
2023-04-05T19:20:19.059Z,99390.13
2023-04-05T19:22:46.727Z,99398.94
2023-04-05T19:25:14.943Z,99391.00
2023-04-05T19:27:44.020Z,99386.81
2023-04-05T19:30:12.413Z,99396.38
2023-04-05T19:32:40.308Z,99392.06
2023-04-05T19:35:09.845Z,99396.81
2023-04-05T19:37:37.527Z,99398.50
2023-04-05T19:40:06.299Z,99394.44
2023-04-05T19:42:34.061Z,99396.22
2023-04-05T19:45:03.228Z,99390.31
2023-04-05T19:47:31.378Z,99391.22
2023-04-05T19:50:00.565Z,99386.94
2023-04-05T19:52:40.823Z,99396.59
2023-04-05T19:55:29.692Z,99393.06
2023-04-05T19:57:58.088Z,99397.41
2023-04-05T20:00:37.518Z,99392.16
2023-04-05T20:03:18.944Z,99386.94
2023-04-05T20:05:59.870Z,99390.59
2023-04-05T20:08:28.205Z,99389.06
2023-04-05T20:10:56.787Z,99388.19
2023-04-05T20:13:24.543Z,99385.63
2023-04-05T20:15:54.131Z,99386.63
2023-04-05T20:18:23.691Z,99390.09
2023-04-05T20:20:53.139Z,99389.19
2023-04-05T20:23:22.695Z,99387.44
2023-04-05T20:25:51.599Z,99397.06
2023-04-05T20:28:34.737Z,99390.75
2023-04-05T20:31:03.957Z,99384.59
2023-04-05T20:33:46.518Z,99388.97
2023-04-05T20:36:15.435Z,99389.69
2023-04-05T20:38:44.834Z,99387.81
2023-04-05T20:41:13.130Z,99388.75
2023-04-05T20:43:41.759Z,99389.66
2023-04-05T20:46:11.463Z,99386.75
2023-04-05T20:48:39.400Z,99385.22
2023-04-05T20:51:08.217Z,99385.22
2023-04-05T20:53:37.214Z,99388.72
2023-04-05T20:56:05.944Z,99380.78
2023-04-05T20:58:33.754Z,99383.31
2023-04-05T21:01:03.447Z,99375.63
2023-04-05T21:03:33.553Z,99383.59
2023-04-05T21:06:02.060Z,99386.13
2023-04-05T21:08:30.717Z,99387.97
2023-04-05T21:10:59.061Z,99388.03
2023-04-05T21:13:26.989Z,99383.00
2023-04-05T21:15:55.485Z,99383.91
2023-04-05T21:18:23.722Z,99388.38
2023-04-05T21:20:54.176Z,99382.38
2023-04-05T21:23:23.687Z,99382.25
2023-04-05T21:25:55.128Z,99378.28
2023-04-05T21:28:24.992Z,99383.50
2023-04-05T21:30:53.622Z,99383.53
2023-04-05T21:33:21.387Z,99372.94
2023-04-05T21:35:49.213Z,99382.59
2023-04-05T21:38:18.489Z,99380.03
2023-04-05T21:40:46.265Z,99384.25
2023-04-05T21:43:14.093Z,99389.63
2023-04-05T21:45:41.741Z,99388.84
2023-04-05T21:48:09.742Z,99384.38
2023-04-05T21:50:37.590Z,99381.00
2023-04-05T21:53:07.324Z,99382.94
2023-04-05T21:55:36.785Z,99382.09
2023-04-05T21:58:04.649Z,99386.63
2023-04-05T22:00:32.370Z,99382.16
2023-04-05T22:03:00.176Z,99379.66
2023-04-05T22:05:37.916Z,99382.19
2023-04-05T22:08:07.412Z,99378.06
2023-04-05T22:10:37.507Z,99383.28
2023-04-05T22:13:05.359Z,99376.28
2023-04-05T22:15:33.026Z,99370.34
2023-04-05T22:18:00.905Z,99374.66
2023-04-05T22:20:28.767Z,99378.13
2023-04-05T22:22:56.514Z,99378.00
2023-04-05T22:25:26.321Z,99381.38
2023-04-05T22:27:59.640Z,99377.94
2023-04-05T22:30:28.239Z,99376.22
2023-04-05T22:32:56.597Z,99375.34
2023-04-05T22:35:24.511Z,99369.31
2023-04-05T22:37:52.265Z,99378.06
2023-04-05T22:40:19.956Z,99371.13
2023-04-05T22:42:47.590Z,99374.59
2023-04-05T22:45:16.829Z,99372.03
2023-04-05T22:47:44.564Z,99363.53
2023-04-05T22:50:12.469Z,99360.06
2023-04-05T22:52:40.282Z,99366.13
2023-04-05T22:55:09.450Z,99374.91
2023-04-05T22:57:37.226Z,99369.66
2023-04-05T23:00:05.584Z,99375.84
2023-04-05T23:02:34.630Z,99362.84
2023-04-05T23:05:02.447Z,99372.34
2023-04-05T23:07:30.182Z,99364.63
2023-04-05T23:09:57.857Z,99360.19
2023-04-05T23:12:25.625Z,99360.25
2023-04-05T23:14:53.316Z,99364.63
2023-04-05T23:17:21.449Z,99361.19
2023-04-05T23:19:50.462Z,99356.78
2023-04-05T23:22:18.184Z,99362.81
2023-04-05T23:24:45.879Z,99361.13
2023-04-05T23:27:13.562Z,99365.97
2023-04-05T23:29:41.332Z,99369.44
2023-04-05T23:32:12.608Z,99365.13
2023-04-05T23:34:40.461Z,99355.53
2023-04-05T23:37:09.516Z,99358.09
2023-04-05T23:39:37.266Z,99356.31
2023-04-05T23:42:05.388Z,99358.91
2023-04-05T23:44:33.182Z,99348.56
2023-04-05T23:47:01.162Z,99352.03
2023-04-05T23:49:28.981Z,99353.75
2023-04-05T23:51:56.615Z,99353.00
2023-04-05T23:54:25.944Z,99358.22
2023-04-05T23:56:53.856Z,99348.63
2023-04-05T23:59:21.616Z,99351.13
